createdAt,value
2018-08-11T00:01:47.264Z,50.24
2018-08-11T00:04:13.690Z,50.14
2018-08-11T00:06:40.031Z,50.24
2018-08-11T00:09:06.396Z,50.26
2018-08-11T00:11:32.729Z,50.34
2018-08-11T00:13:59.195Z,50.33
2018-08-11T00:16:25.573Z,50.30
2018-08-11T00:18:52.054Z,50.38
2018-08-11T00:21:18.623Z,50.45
2018-08-11T00:23:45.172Z,50.29
2018-08-11T00:26:11.535Z,50.33
2018-08-11T00:28:37.991Z,50.44
2018-08-11T00:31:04.322Z,50.43
2018-08-11T00:33:30.643Z,50.38
2018-08-11T00:35:57.056Z,50.41
2018-08-11T00:38:23.574Z,50.48
2018-08-11T00:40:50.206Z,50.55
2018-08-11T00:43:16.582Z,50.39
2018-08-11T00:45:42.947Z,50.50
2018-08-11T00:48:09.314Z,50.54
2018-08-11T00:50:35.639Z,50.55
2018-08-11T00:53:02.010Z,50.50
2018-08-11T00:55:28.343Z,50.71
2018-08-11T00:57:54.751Z,50.54
2018-08-11T01:00:21.138Z,50.57
2018-08-11T01:02:47.486Z,50.68
2018-08-11T01:05:13.856Z,50.75
2018-08-11T01:07:40.300Z,50.64
2018-08-11T01:10:06.691Z,50.70
2018-08-11T01:15:05.744Z,50.76
2018-08-11T01:17:33.752Z,50.76
2018-08-11T01:20:00.096Z,50.72
2018-08-11T01:22:26.424Z,50.80
2018-08-11T01:24:52.774Z,50.72
2018-08-11T01:27:19.108Z,50.92
2018-08-11T01:29:45.539Z,50.86
2018-08-11T01:32:11.866Z,50.91
2018-08-11T01:34:38.242Z,50.82
2018-08-11T01:37:04.596Z,50.72
2018-08-11T01:39:30.990Z,50.67
2018-08-11T01:41:57.323Z,50.85
2018-08-11T01:44:23.734Z,50.82
2018-08-11T01:46:50.018Z,50.69
2018-08-11T01:49:16.356Z,50.82
2018-08-11T01:51:42.699Z,50.82
2018-08-11T01:54:09.039Z,50.69
2018-08-11T01:56:35.377Z,50.76
2018-08-11T01:59:01.751Z,50.92
2018-08-11T02:01:28.107Z,50.83
2018-08-11T02:03:54.535Z,50.84
2018-08-11T02:06:20.993Z,50.85
2018-08-11T02:08:47.334Z,50.82
2018-08-11T02:11:13.765Z,50.90
2018-08-11T02:13:40.382Z,50.88
2018-08-11T02:16:06.700Z,50.95
2018-08-11T02:18:33.127Z,51.12
2018-08-11T02:20:59.490Z,50.98
2018-08-11T02:23:25.904Z,50.92
2018-08-11T02:25:52.269Z,51.06
2018-08-11T02:28:18.662Z,51.11
2018-08-11T02:30:45.174Z,51.13
2018-08-11T02:33:11.502Z,51.08
2018-08-11T02:35:37.825Z,51.19
2018-08-11T02:38:04.172Z,51.05
2018-08-11T02:40:30.734Z,51.10
2018-08-11T02:42:57.093Z,51.17
2018-08-11T02:45:23.491Z,51.11
2018-08-11T02:47:49.820Z,51.10
2018-08-11T02:50:16.242Z,51.20
2018-08-11T02:52:42.615Z,51.14
2018-08-11T02:55:08.973Z,51.21
2018-08-11T02:57:35.336Z,51.15
2018-08-11T03:00:01.699Z,51.26
2018-08-11T03:02:28.131Z,51.39
2018-08-11T03:04:54.496Z,51.21
2018-08-11T03:07:20.933Z,51.26
2018-08-11T03:09:47.312Z,51.35
2018-08-11T03:12:13.705Z,51.21
2018-08-11T03:14:40.116Z,51.23
2018-08-11T03:17:06.457Z,51.29
2018-08-11T03:19:32.789Z,51.27
2018-08-11T03:21:59.147Z,51.24
2018-08-11T03:24:25.505Z,51.27
2018-08-11T03:26:51.921Z,51.35
2018-08-11T03:29:18.475Z,51.33
2018-08-11T03:31:45.042Z,51.31
2018-08-11T03:34:11.388Z,51.34
2018-08-11T03:36:37.777Z,51.31
2018-08-11T03:39:04.295Z,51.27
2018-08-11T03:41:30.655Z,51.27
2018-08-11T03:43:57.101Z,51.27
2018-08-11T03:46:23.447Z,51.22
2018-08-11T03:48:49.815Z,51.14
2018-08-11T03:51:16.150Z,51.21
2018-08-11T03:53:42.529Z,51.23
2018-08-11T03:56:09.016Z,51.15
2018-08-11T03:58:35.366Z,51.26
2018-08-11T04:01:01.890Z,51.23
2018-08-11T04:03:28.430Z,51.21
2018-08-11T04:05:54.766Z,51.32
2018-08-11T04:08:21.105Z,51.20
2018-08-11T04:10:47.462Z,51.25
2018-08-11T04:13:13.808Z,51.35
2018-08-11T04:15:40.238Z,51.36
2018-08-11T04:18:06.606Z,51.27
2018-08-11T04:20:33.001Z,51.17
2018-08-11T04:22:59.513Z,50.90
2018-08-11T04:25:25.915Z,50.74
2018-08-11T04:27:52.239Z,50.49
2018-08-11T04:30:18.582Z,50.43
2018-08-11T04:32:44.997Z,50.08
2018-08-11T04:35:11.343Z,50.31
2018-08-11T04:37:37.716Z,49.89
2018-08-11T04:40:04.065Z,49.68
2018-08-11T04:42:30.415Z,49.50
2018-08-11T04:44:56.756Z,49.58
2018-08-11T04:47:23.134Z,49.76
2018-08-11T04:49:49.509Z,49.87
2018-08-11T04:52:15.845Z,50.26
2018-08-11T04:54:42.266Z,50.26
2018-08-11T04:57:08.639Z,50.35
2018-08-11T04:59:34.982Z,50.11
2018-08-11T05:02:01.312Z,50.02
2018-08-11T05:04:27.639Z,50.10
2018-08-11T05:06:54.088Z,49.96
2018-08-11T05:09:20.480Z,49.91
2018-08-11T05:11:46.893Z,49.94
2018-08-11T05:14:13.212Z,49.94
2018-08-11T05:16:39.636Z,49.68
2018-08-11T05:19:05.967Z,49.70
2018-08-11T05:21:32.306Z,49.61
2018-08-11T05:23:58.631Z,49.74
2018-08-11T05:26:25.100Z,49.49
2018-08-11T05:28:51.370Z,49.50
2018-08-11T05:31:17.706Z,49.49
2018-08-11T05:33:44.032Z,49.40
2018-08-11T05:36:10.398Z,49.48
2018-08-11T05:38:36.771Z,49.44
2018-08-11T05:41:03.173Z,49.37
2018-08-11T05:43:29.478Z,49.36
2018-08-11T05:45:55.821Z,49.47
2018-08-11T05:48:22.329Z,49.47
2018-08-11T05:50:48.665Z,49.55
2018-08-11T05:53:14.996Z,49.53
2018-08-11T05:55:41.335Z,49.52
2018-08-11T05:58:07.692Z,49.67
2018-08-11T06:00:34.083Z,49.53
2018-08-11T06:03:00.655Z,49.50
2018-08-11T06:05:27.062Z,49.53
2018-08-11T06:07:53.428Z,49.53
2018-08-11T06:10:19.788Z,49.63
2018-08-11T06:12:46.322Z,49.66
2018-08-11T06:15:12.761Z,49.66
2018-08-11T06:17:39.129Z,49.68
2018-08-11T06:20:05.474Z,49.71
2018-08-11T06:22:31.878Z,49.71
2018-08-11T06:24:58.406Z,49.67
2018-08-11T06:27:24.880Z,49.69
2018-08-11T06:29:51.244Z,49.88
2018-08-11T06:32:17.726Z,49.88
2018-08-11T06:34:44.230Z,49.91
2018-08-11T06:37:10.592Z,49.95
2018-08-11T06:39:37.028Z,50.06
2018-08-11T06:42:03.352Z,50.02
2018-08-11T06:44:29.760Z,50.05
2018-08-11T06:46:56.197Z,49.99
2018-08-11T06:49:22.586Z,50.14
2018-08-11T06:51:48.921Z,50.14
2018-08-11T06:54:15.259Z,50.14
2018-08-11T06:56:41.579Z,50.21
2018-08-11T06:59:07.974Z,50.24
2018-08-11T07:01:34.441Z,50.26
2018-08-11T07:04:00.882Z,50.27
2018-08-11T07:06:27.281Z,50.37
2018-08-11T07:08:53.677Z,50.34
2018-08-11T07:11:20.036Z,50.43
2018-08-11T07:13:46.424Z,50.40
2018-08-11T07:16:12.843Z,50.54
2018-08-11T07:18:39.384Z,50.50
2018-08-11T07:21:05.849Z,50.58
2018-08-11T07:23:32.195Z,50.60
2018-08-11T07:25:58.545Z,50.61
2018-08-11T07:28:24.979Z,50.70
2018-08-11T07:30:51.433Z,50.76
2018-08-11T07:33:17.873Z,50.69
2018-08-11T07:35:44.233Z,50.77
2018-08-11T07:38:10.667Z,50.72
2018-08-11T07:40:37.065Z,50.81
2018-08-11T07:43:03.439Z,50.81
2018-08-11T07:45:29.833Z,50.88
2018-08-11T07:47:56.233Z,51.02
2018-08-11T07:50:22.653Z,50.87
2018-08-11T07:52:48.985Z,50.91
2018-08-11T07:55:15.310Z,50.87
2018-08-11T07:57:41.738Z,50.92
2018-08-11T08:00:08.088Z,51.00
2018-08-11T08:02:34.426Z,51.04
2018-08-11T08:05:00.794Z,51.02
2018-08-11T08:07:27.139Z,51.11
2018-08-11T08:09:53.660Z,50.95
2018-08-11T08:12:20.091Z,50.84
2018-08-11T08:14:46.456Z,50.91
2018-08-11T08:17:12.876Z,50.95
2018-08-11T08:19:39.251Z,50.88
2018-08-11T08:22:05.647Z,50.77
2018-08-11T08:24:32.056Z,50.78
2018-08-11T08:26:58.481Z,50.79
2018-08-11T08:29:24.945Z,50.72
2018-08-11T08:31:51.363Z,50.54
2018-08-11T08:34:17.717Z,50.63
2018-08-11T08:36:44.121Z,50.63
2018-08-11T08:39:10.472Z,50.49
2018-08-11T08:41:36.865Z,50.56
2018-08-11T08:44:03.206Z,50.44
2018-08-11T08:46:29.732Z,50.53
2018-08-11T08:48:56.128Z,50.57
2018-08-11T08:51:22.539Z,50.49
2018-08-11T08:53:48.886Z,50.36
2018-08-11T08:56:15.271Z,50.40
2018-08-11T08:58:41.624Z,50.27
2018-08-11T09:01:07.996Z,50.31
2018-08-11T09:03:34.366Z,49.99
2018-08-11T09:06:00.816Z,50.05
2018-08-11T09:08:27.233Z,50.04
2018-08-11T09:10:53.588Z,50.01
2018-08-11T09:13:19.979Z,50.08
2018-08-11T09:15:46.425Z,49.98
2018-08-11T09:18:12.857Z,49.89
2018-08-11T09:20:39.232Z,49.95
2018-08-11T09:23:05.578Z,49.84
2018-08-11T09:25:32.146Z,49.84
2018-08-11T09:27:58.552Z,49.87
2018-08-11T09:30:24.925Z,49.79
2018-08-11T09:32:51.268Z,49.89
2018-08-11T09:35:17.653Z,49.78
2018-08-11T09:37:44.032Z,49.73
2018-08-11T09:40:10.372Z,49.83
2018-08-11T09:42:36.725Z,49.76
2018-08-11T09:45:03.169Z,49.76
2018-08-11T09:47:29.526Z,49.92
2018-08-11T09:49:55.957Z,49.79
2018-08-11T09:52:22.316Z,49.73
2018-08-11T09:54:48.688Z,49.61
2018-08-11T09:57:15.164Z,49.72
2018-08-11T09:59:41.507Z,49.71
2018-08-11T10:02:07.853Z,49.59
2018-08-11T10:04:34.192Z,49.66
2018-08-11T10:07:00.577Z,49.66
2018-08-11T10:09:26.912Z,49.53
2018-08-11T10:11:53.425Z,49.61
2018-08-11T10:14:19.757Z,49.34
2018-08-11T10:16:46.368Z,49.31
2018-08-11T10:19:12.721Z,49.38
2018-08-11T10:21:39.095Z,49.27
2018-08-11T10:24:05.439Z,49.20
2018-08-11T10:26:31.923Z,49.22
2018-08-11T10:28:58.290Z,49.27
2018-08-11T10:31:24.626Z,49.24
2018-08-11T10:33:50.967Z,49.15
2018-08-11T10:36:17.419Z,49.08
2018-08-11T10:38:43.773Z,48.98
2018-08-11T10:41:10.159Z,48.99
2018-08-11T10:43:36.495Z,48.95
2018-08-11T10:46:02.849Z,48.80
2018-08-11T10:48:29.230Z,48.63
2018-08-11T10:50:55.559Z,48.63
2018-08-11T10:53:21.911Z,48.66
2018-08-11T10:55:48.244Z,48.46
2018-08-11T10:58:14.641Z,48.57
2018-08-11T11:00:40.975Z,48.39
2018-08-11T11:03:07.363Z,48.57
2018-08-11T11:05:33.712Z,48.39
2018-08-11T11:08:00.287Z,48.17
2018-08-11T11:10:26.682Z,48.12
2018-08-11T11:12:53.051Z,48.20
2018-08-11T11:15:19.439Z,48.25
2018-08-11T11:17:45.807Z,48.17
2018-08-11T11:20:12.143Z,48.12
2018-08-11T11:22:38.523Z,48.09
2018-08-11T11:25:05.012Z,48.07
2018-08-11T11:27:31.396Z,48.08
2018-08-11T11:29:57.726Z,48.29
2018-08-11T11:32:24.050Z,48.11
2018-08-11T11:34:50.451Z,48.21
2018-08-11T11:37:16.800Z,47.99
2018-08-11T11:39:43.180Z,47.93
2018-08-11T11:42:09.580Z,47.93
2018-08-11T11:44:35.982Z,47.87
2018-08-11T11:47:02.347Z,47.85
2018-08-11T11:49:28.713Z,47.81
2018-08-11T11:51:55.115Z,47.81
2018-08-11T11:54:21.438Z,47.73
2018-08-11T11:56:47.931Z,47.70
2018-08-11T11:59:14.266Z,47.65
2018-08-11T12:01:40.685Z,47.58
2018-08-11T12:04:06.999Z,47.46
2018-08-11T12:06:33.367Z,47.52
2018-08-11T12:08:59.763Z,47.31
2018-08-11T12:11:26.213Z,47.57
2018-08-11T12:13:52.610Z,47.44
2018-08-11T12:16:18.978Z,47.45
2018-08-11T12:18:45.305Z,47.46
2018-08-11T12:21:11.626Z,47.31
2018-08-11T12:23:38.004Z,47.39
2018-08-11T12:26:04.414Z,47.48
2018-08-11T12:28:30.796Z,47.44
2018-08-11T12:30:57.148Z,47.50
2018-08-11T12:33:23.512Z,47.50
2018-08-11T12:35:49.899Z,47.40
2018-08-11T12:38:16.236Z,47.44
2018-08-11T12:40:42.599Z,47.54
2018-08-11T12:43:08.998Z,47.47
2018-08-11T12:45:35.453Z,47.61
2018-08-11T12:48:01.784Z,47.64
2018-08-11T12:50:28.212Z,47.53
2018-08-11T12:52:54.586Z,47.51
2018-08-11T12:55:20.961Z,47.44
2018-08-11T12:57:47.403Z,47.53
2018-08-11T13:00:13.733Z,47.39
2018-08-11T13:02:40.099Z,47.54
2018-08-11T13:05:06.419Z,47.60
2018-08-11T13:07:32.798Z,47.50
2018-08-11T13:09:59.175Z,47.46
2018-08-11T13:12:25.526Z,47.70
2018-08-11T13:14:51.909Z,47.57
2018-08-11T13:17:18.351Z,47.51
2018-08-11T13:19:44.700Z,47.54
2018-08-11T13:22:11.121Z,47.52
2018-08-11T13:24:37.483Z,47.69
2018-08-11T13:27:03.798Z,47.74
2018-08-11T13:29:30.157Z,47.73
2018-08-11T13:31:56.533Z,47.62
2018-08-11T13:34:22.995Z,47.71
2018-08-11T13:36:49.380Z,47.78
2018-08-11T13:39:15.735Z,47.85
2018-08-11T13:41:42.108Z,47.86
2018-08-11T13:44:08.524Z,47.64
2018-08-11T13:46:34.857Z,47.97
2018-08-11T13:49:01.237Z,47.82
2018-08-11T13:51:27.607Z,47.88
2018-08-11T13:53:53.997Z,47.91
2018-08-11T13:56:20.337Z,47.81
2018-08-11T13:58:46.719Z,47.99
2018-08-11T14:01:13.072Z,47.83
2018-08-11T14:03:39.418Z,48.06
2018-08-11T14:06:05.852Z,47.97
2018-08-11T14:08:32.212Z,47.98
2018-08-11T14:10:58.556Z,47.99
2018-08-11T14:13:24.928Z,47.94
2018-08-11T14:15:51.319Z,48.01
2018-08-11T14:18:17.792Z,48.05
2018-08-11T14:20:44.158Z,47.96
2018-08-11T14:23:10.635Z,47.96
2018-08-11T14:25:37.018Z,48.03
2018-08-11T14:28:03.506Z,48.03
2018-08-11T14:30:29.892Z,48.08
2018-08-11T14:32:56.263Z,48.11
2018-08-11T14:35:22.647Z,48.25
2018-08-11T14:37:49.003Z,48.25
2018-08-11T14:40:15.482Z,48.18
2018-08-11T14:42:41.890Z,48.31
2018-08-11T14:45:08.267Z,48.29
2018-08-11T14:47:34.670Z,48.40
2018-08-11T14:50:01.092Z,48.34
2018-08-11T14:52:27.417Z,48.28
2018-08-11T14:54:53.752Z,48.38
2018-08-11T14:57:20.106Z,48.30
2018-08-11T14:59:46.440Z,48.55
2018-08-11T15:02:12.846Z,48.44
2018-08-11T15:04:39.387Z,48.33
2018-08-11T15:07:05.784Z,48.37
2018-08-11T15:09:32.150Z,48.44
2018-08-11T15:11:58.473Z,48.44
2018-08-11T15:14:24.859Z,48.53
2018-08-11T15:16:51.250Z,48.58
2018-08-11T15:19:17.593Z,48.69
2018-08-11T15:21:43.961Z,48.77
2018-08-11T15:24:10.325Z,48.71
2018-08-11T15:26:36.690Z,48.78
2018-08-11T15:29:03.079Z,48.99
2018-08-11T15:31:29.470Z,49.04
2018-08-11T15:33:55.852Z,49.15
2018-08-11T15:36:22.250Z,49.11
2018-08-11T15:38:48.639Z,49.04
2018-08-11T15:41:15.021Z,49.27
2018-08-11T15:43:41.396Z,49.16
2018-08-11T15:46:07.792Z,49.34
2018-08-11T15:48:34.224Z,49.35
2018-08-11T15:51:00.576Z,49.20
2018-08-11T15:53:27.034Z,49.34
2018-08-11T15:55:53.421Z,49.28
2018-08-11T15:58:19.763Z,49.37
2018-08-11T16:00:46.113Z,49.63
2018-08-11T16:03:12.500Z,49.34
2018-08-11T16:05:38.850Z,49.44
2018-08-11T16:08:05.214Z,49.70
2018-08-11T16:10:31.719Z,49.57
2018-08-11T16:12:58.080Z,49.38
2018-08-11T16:15:24.455Z,49.53
2018-08-11T16:17:50.812Z,49.64
2018-08-11T16:20:17.226Z,49.67
2018-08-11T16:22:43.632Z,49.85
2018-08-11T16:25:10.015Z,49.69
2018-08-11T16:27:36.345Z,49.79
2018-08-11T16:30:02.684Z,49.93
2018-08-11T16:32:29.127Z,49.79
2018-08-11T16:34:55.499Z,49.82
2018-08-11T16:37:21.813Z,49.80
2018-08-11T16:39:48.172Z,49.98
2018-08-11T16:42:14.573Z,49.94
2018-08-11T16:44:40.919Z,50.02
2018-08-11T16:47:07.321Z,50.07
2018-08-11T16:49:33.679Z,50.07
2018-08-11T16:52:00.035Z,50.05
2018-08-11T16:54:26.422Z,50.02
2018-08-11T16:56:52.927Z,50.14
2018-08-11T16:59:19.268Z,50.07
2018-08-11T17:01:45.664Z,50.08
2018-08-11T17:04:11.987Z,50.01
2018-08-11T17:06:38.449Z,49.99
2018-08-11T17:09:04.791Z,50.00
2018-08-11T17:11:31.129Z,49.95
2018-08-11T17:13:57.473Z,50.01
2018-08-11T17:16:23.812Z,49.90
2018-08-11T17:18:50.215Z,50.08
2018-08-11T17:21:16.635Z,49.79
2018-08-11T17:23:43.004Z,50.08
2018-08-11T17:26:09.356Z,50.01
2018-08-11T17:28:35.696Z,49.82
2018-08-11T17:31:02.092Z,49.79
2018-08-11T17:33:28.444Z,49.81
2018-08-11T17:35:54.766Z,49.75
2018-08-11T17:38:21.105Z,49.63
2018-08-11T17:40:47.436Z,49.63
2018-08-11T17:43:13.793Z,49.61
2018-08-11T17:45:40.161Z,49.79
2018-08-11T17:48:06.553Z,49.63
2018-08-11T17:50:32.997Z,49.56
2018-08-11T17:52:59.397Z,49.41
2018-08-11T17:55:25.793Z,49.36
2018-08-11T17:57:52.166Z,49.35
2018-08-11T18:00:18.514Z,49.31
2018-08-11T18:02:44.844Z,49.35
2018-08-11T18:05:11.176Z,49.29
2018-08-11T18:07:37.561Z,49.25
2018-08-11T18:10:04.011Z,49.44
2018-08-11T18:12:30.349Z,49.34
2018-08-11T18:14:56.674Z,49.53
2018-08-11T18:17:22.999Z,49.56
2018-08-11T18:19:49.411Z,49.50
2018-08-11T18:22:15.773Z,49.42
2018-08-11T18:24:42.208Z,49.38
2018-08-11T18:27:08.582Z,49.44
2018-08-11T18:29:34.962Z,49.54
2018-08-11T18:32:01.324Z,49.40
2018-08-11T18:34:27.744Z,49.41
2018-08-11T18:36:54.079Z,49.22
2018-08-11T18:39:20.448Z,49.34
2018-08-11T18:41:46.784Z,49.24
2018-08-11T18:44:13.128Z,49.32
2018-08-11T18:46:39.546Z,49.21
2018-08-11T18:49:05.870Z,49.24
2018-08-11T18:51:32.208Z,49.44
2018-08-11T18:53:58.620Z,49.30
2018-08-11T18:56:24.979Z,49.18
2018-08-11T18:58:51.405Z,49.23
2018-08-11T19:01:17.878Z,49.23
2018-08-11T19:03:44.199Z,49.29
2018-08-11T19:06:10.635Z,49.37
2018-08-11T19:08:37.068Z,49.35
2018-08-11T19:11:03.415Z,49.30
2018-08-11T19:13:29.732Z,49.42
2018-08-11T19:15:56.102Z,49.40
2018-08-11T19:18:22.501Z,49.41
2018-08-11T19:20:48.875Z,49.19
2018-08-11T19:23:15.251Z,49.45
2018-08-11T19:25:41.744Z,49.19
2018-08-11T19:28:08.033Z,49.21
2018-08-11T19:30:34.420Z,49.29
2018-08-11T19:33:00.800Z,49.42
2018-08-11T19:35:27.180Z,49.25
2018-08-11T19:37:53.513Z,49.31
2018-08-11T19:40:19.892Z,49.10
2018-08-11T19:42:46.223Z,49.28
2018-08-11T19:45:12.655Z,49.11
2018-08-11T19:47:39.021Z,49.29
2018-08-11T19:50:05.364Z,49.05
2018-08-11T19:52:31.698Z,49.05
2018-08-11T19:54:58.103Z,49.27
2018-08-11T19:57:24.427Z,49.16
2018-08-11T19:59:50.822Z,49.38
2018-08-11T20:02:17.200Z,49.22
2018-08-11T20:04:43.533Z,49.38
2018-08-11T20:07:09.948Z,49.47
2018-08-11T20:09:36.227Z,49.15
2018-08-11T20:12:02.807Z,49.35
2018-08-11T20:14:29.218Z,49.21
2018-08-11T20:16:55.556Z,49.41
2018-08-11T20:19:22.090Z,49.44
2018-08-11T20:21:48.497Z,49.46
2018-08-11T20:24:14.833Z,49.53
2018-08-11T20:26:41.324Z,49.24
2018-08-11T20:29:07.685Z,49.41
2018-08-11T20:31:35.024Z,49.27
2018-08-11T20:34:01.349Z,49.18
2018-08-11T20:36:27.726Z,49.37
2018-08-11T20:38:54.062Z,49.31
2018-08-11T20:41:20.413Z,49.08
2018-08-11T20:43:46.743Z,49.24
2018-08-11T20:46:13.080Z,49.35
2018-08-11T20:48:39.402Z,49.18
2018-08-11T20:51:05.769Z,49.01
2018-08-11T20:53:32.124Z,48.99
2018-08-11T20:55:58.467Z,49.03
2018-08-11T20:58:24.854Z,48.99
2018-08-11T21:00:51.184Z,49.15
2018-08-11T21:03:17.522Z,49.01
2018-08-11T21:05:43.911Z,48.90
2018-08-11T21:08:10.286Z,48.82
2018-08-11T21:10:36.662Z,48.79
2018-08-11T21:13:03.112Z,48.79
2018-08-11T21:15:29.621Z,48.69
2018-08-11T21:17:55.955Z,48.77
2018-08-11T21:20:22.339Z,48.75
2018-08-11T21:22:48.716Z,48.70
2018-08-11T21:25:15.105Z,48.57
2018-08-11T21:27:41.489Z,48.55
2018-08-11T21:30:07.851Z,48.53
2018-08-11T21:32:34.204Z,48.61
2018-08-11T21:35:00.567Z,48.52
2018-08-11T21:37:26.935Z,48.49
2018-08-11T21:39:53.329Z,48.47
2018-08-11T21:42:19.664Z,48.44
2018-08-11T21:44:46.020Z,48.39
2018-08-11T21:47:12.353Z,48.41
2018-08-11T21:49:38.709Z,48.39
2018-08-11T21:52:05.049Z,48.35
2018-08-11T21:54:31.416Z,48.22
2018-08-11T21:56:57.772Z,48.24
2018-08-11T21:59:24.153Z,48.11
2018-08-11T22:01:50.591Z,48.12
2018-08-11T22:04:16.964Z,48.08
2018-08-11T22:06:43.349Z,48.08
2018-08-11T22:09:09.707Z,47.92
2018-08-11T22:11:36.034Z,48.02
2018-08-11T22:14:02.429Z,47.99
2018-08-11T22:16:28.779Z,48.00
2018-08-11T22:18:55.227Z,47.91
2018-08-11T22:21:21.640Z,47.90
2018-08-11T22:23:47.992Z,47.90
2018-08-11T22:26:14.382Z,47.88
2018-08-11T22:28:40.709Z,47.86
2018-08-11T22:31:07.190Z,47.82
2018-08-11T22:33:33.548Z,47.85
2018-08-11T22:35:59.933Z,47.89
2018-08-11T22:38:26.293Z,47.76
2018-08-11T22:40:52.657Z,47.83
2018-08-11T22:43:19.004Z,47.74
2018-08-11T22:45:45.359Z,47.71
2018-08-11T22:48:11.712Z,47.71
2018-08-11T22:50:38.181Z,47.67
2018-08-11T22:53:04.610Z,47.62
2018-08-11T22:55:31.148Z,47.58
2018-08-11T22:57:57.577Z,47.67
2018-08-11T23:00:23.964Z,47.54
2018-08-11T23:02:50.321Z,47.56
2018-08-11T23:05:16.694Z,47.59
2018-08-11T23:07:43.049Z,47.55
2018-08-11T23:10:09.411Z,47.57
2018-08-11T23:12:35.770Z,47.66
2018-08-11T23:15:02.120Z,47.59
2018-08-11T23:17:28.482Z,47.50
2018-08-11T23:19:54.837Z,47.54
2018-08-11T23:22:21.294Z,47.57
2018-08-11T23:24:47.735Z,47.53
2018-08-11T23:27:14.095Z,47.43
2018-08-11T23:29:40.444Z,47.47
2018-08-11T23:32:06.826Z,47.48
2018-08-11T23:34:33.165Z,47.41
2018-08-11T23:36:59.491Z,47.38
2018-08-11T23:39:25.824Z,47.43
2018-08-11T23:41:52.150Z,47.40
2018-08-11T23:44:18.475Z,47.34
2018-08-11T23:46:44.836Z,47.38
2018-08-11T23:49:11.188Z,47.35
2018-08-11T23:51:37.667Z,47.36
2018-08-11T23:54:04.022Z,47.34
2018-08-11T23:56:30.433Z,47.31
2018-08-11T23:58:56.795Z,47.23
